createdAt,value
2017-11-23T00:02:25.418Z,84.50
2017-11-23T00:04:51.963Z,84.80
2017-11-23T00:07:18.512Z,84.70
2017-11-23T00:09:45.124Z,84.10
2017-11-23T00:12:11.676Z,83.70
2017-11-23T00:14:38.272Z,83.80
2017-11-23T00:17:04.891Z,84.20
2017-11-23T00:19:31.456Z,84.90
2017-11-23T00:21:58.007Z,84.80
2017-11-23T00:24:24.608Z,84.80
2017-11-23T00:26:51.156Z,85.30
2017-11-23T00:29:18.085Z,85.90
2017-11-23T00:31:44.669Z,85.90
2017-11-23T00:34:11.235Z,85.90
2017-11-23T00:36:38.159Z,85.40
2017-11-23T00:39:04.763Z,85.40
2017-11-23T00:41:31.347Z,85.30
2017-11-23T00:43:57.909Z,85.90
2017-11-23T00:46:24.511Z,86.40
2017-11-23T00:48:51.051Z,86.00
2017-11-23T00:51:17.607Z,85.60
2017-11-23T00:53:44.291Z,85.80
2017-11-23T00:56:10.851Z,86.00
2017-11-23T00:58:37.386Z,86.20
2017-11-23T01:01:04.035Z,86.00
2017-11-23T01:03:30.594Z,85.80
2017-11-23T01:05:57.175Z,85.40
2017-11-23T01:08:23.779Z,85.30
2017-11-23T01:10:50.332Z,84.80
2017-11-23T01:13:16.880Z,84.70
2017-11-23T01:15:43.471Z,84.70
2017-11-23T01:18:10.398Z,84.40
2017-11-23T01:20:36.975Z,84.40
2017-11-23T01:23:03.571Z,84.50
2017-11-23T01:25:30.485Z,84.40
2017-11-23T01:27:57.041Z,84.40
2017-11-23T01:30:23.639Z,84.40
2017-11-23T01:32:50.191Z,83.90
2017-11-23T01:35:16.859Z,83.80
2017-11-23T01:37:43.875Z,83.70
2017-11-23T01:40:10.427Z,83.70
2017-11-23T01:42:37.024Z,83.70
2017-11-23T01:45:03.675Z,83.60
2017-11-23T01:47:30.232Z,83.50
2017-11-23T01:49:56.795Z,83.60
2017-11-23T01:52:23.411Z,83.70
2017-11-23T01:54:50.355Z,84.00
2017-11-23T01:57:16.976Z,84.00
2017-11-23T01:59:43.723Z,83.60
2017-11-23T02:02:10.270Z,83.30
2017-11-23T02:04:36.839Z,83.60
2017-11-23T02:07:03.658Z,83.90
2017-11-23T02:09:30.284Z,83.30
2017-11-23T02:11:56.895Z,83.90
2017-11-23T02:14:24.035Z,83.80
2017-11-23T02:16:50.664Z,83.80
2017-11-23T02:19:17.331Z,84.10
2017-11-23T02:21:44.071Z,84.70
2017-11-23T02:24:11.148Z,84.80
2017-11-23T02:26:38.191Z,85.00
2017-11-23T02:29:04.922Z,85.00
2017-11-23T02:31:31.584Z,85.40
2017-11-23T02:33:58.264Z,85.60
2017-11-23T02:36:25.015Z,85.40
2017-11-23T02:38:51.650Z,85.40
2017-11-23T02:41:18.320Z,85.50
2017-11-23T02:43:44.991Z,85.30
2017-11-23T02:46:11.670Z,85.10
2017-11-23T02:48:38.284Z,85.50
2017-11-23T02:51:05.007Z,85.60
2017-11-23T02:53:31.650Z,85.80
2017-11-23T02:55:58.323Z,85.60
2017-11-23T02:58:25.000Z,85.50
2017-11-23T03:00:51.587Z,85.40
2017-11-23T03:03:18.160Z,85.50
2017-11-23T03:05:44.821Z,85.50
2017-11-23T03:08:11.392Z,85.10
2017-11-23T03:13:11.575Z,84.90
2017-11-23T03:15:38.115Z,84.90
2017-11-23T03:18:05.047Z,85.10
2017-11-23T03:20:31.788Z,85.10
2017-11-23T03:22:58.357Z,85.20
2017-11-23T03:25:24.979Z,84.60
2017-11-23T03:27:52.575Z,85.20
2017-11-23T03:30:19.209Z,85.70
2017-11-23T03:32:45.783Z,86.00
2017-11-23T03:35:12.392Z,85.80
2017-11-23T03:37:38.951Z,85.80
2017-11-23T03:40:05.574Z,85.50
2017-11-23T03:42:32.314Z,84.90
2017-11-23T03:44:59.362Z,84.30
2017-11-23T03:47:25.923Z,84.30
2017-11-23T03:49:52.620Z,84.50
2017-11-23T03:52:19.173Z,85.00
2017-11-23T03:54:45.785Z,85.00
2017-11-23T03:57:12.483Z,85.10
2017-11-23T03:59:39.472Z,85.70
2017-11-23T04:02:06.032Z,85.70
2017-11-23T04:04:32.659Z,86.10
2017-11-23T04:06:59.223Z,86.00
2017-11-23T04:09:26.254Z,86.80
2017-11-23T04:11:52.870Z,86.80
2017-11-23T04:14:19.813Z,86.70
2017-11-23T04:16:46.383Z,86.70
2017-11-23T04:19:13.816Z,86.60
2017-11-23T04:21:40.412Z,86.60
2017-11-23T04:24:07.002Z,86.60
2017-11-23T04:26:34.155Z,86.20
2017-11-23T04:29:00.787Z,86.20
2017-11-23T04:31:27.373Z,86.20
2017-11-23T04:33:54.354Z,85.60
2017-11-23T04:36:21.287Z,85.70
2017-11-23T04:38:47.862Z,85.80
2017-11-23T04:41:14.536Z,85.50
2017-11-23T04:43:41.155Z,85.40
2017-11-23T04:46:07.724Z,85.00
2017-11-23T04:48:34.321Z,84.80
2017-11-23T04:51:01.244Z,85.30
2017-11-23T04:53:27.821Z,85.30
2017-11-23T04:55:54.439Z,85.40
2017-11-23T04:58:21.016Z,85.30
2017-11-23T05:00:47.604Z,85.60
2017-11-23T05:03:14.239Z,85.20
2017-11-23T05:05:40.783Z,86.00
2017-11-23T05:08:07.340Z,86.00
2017-11-23T05:10:33.995Z,86.10
2017-11-23T05:13:00.552Z,86.30
2017-11-23T05:15:27.539Z,86.50
2017-11-23T05:17:54.248Z,86.50
2017-11-23T05:20:20.852Z,86.00
2017-11-23T05:22:47.452Z,85.60
2017-11-23T05:25:13.992Z,85.40
2017-11-23T05:27:40.542Z,85.40
2017-11-23T05:30:07.155Z,85.20
2017-11-23T05:32:33.699Z,85.20
2017-11-23T05:35:00.252Z,85.00
2017-11-23T05:37:26.880Z,85.40
2017-11-23T05:39:53.434Z,84.90
2017-11-23T05:42:19.984Z,84.80
2017-11-23T05:44:46.571Z,84.90
2017-11-23T05:47:13.118Z,84.70
2017-11-23T05:49:39.676Z,84.60
2017-11-23T05:52:06.299Z,84.90
2017-11-23T05:54:33.227Z,84.50
2017-11-23T05:56:59.775Z,84.50
2017-11-23T05:59:26.527Z,84.50
2017-11-23T06:01:53.115Z,84.90
2017-11-23T06:04:19.668Z,85.50
2017-11-23T06:06:46.260Z,85.70
2017-11-23T06:09:12.845Z,85.40
2017-11-23T06:11:39.770Z,84.70
2017-11-23T06:14:06.482Z,84.70
2017-11-23T06:16:33.423Z,83.20
2017-11-23T06:18:59.975Z,83.10
2017-11-23T06:21:26.593Z,83.10
2017-11-23T06:23:53.164Z,82.20
2017-11-23T06:26:19.703Z,81.20
2017-11-23T06:28:46.312Z,80.80
2017-11-23T06:31:12.865Z,80.70
2017-11-23T06:33:39.416Z,80.40
2017-11-23T06:36:06.047Z,80.60
2017-11-23T06:38:32.605Z,81.40
2017-11-23T06:40:59.153Z,81.60
2017-11-23T06:43:26.167Z,82.00
2017-11-23T06:45:52.759Z,82.00
2017-11-23T06:48:19.324Z,81.80
2017-11-23T06:50:46.027Z,82.00
2017-11-23T06:53:12.576Z,82.50
2017-11-23T06:55:39.127Z,82.70
2017-11-23T06:58:06.099Z,82.70
2017-11-23T07:00:33.059Z,81.90
2017-11-23T07:03:00.005Z,82.00
2017-11-23T07:05:26.626Z,82.00
2017-11-23T07:07:53.226Z,82.10
2017-11-23T07:10:19.776Z,82.30
2017-11-23T07:12:46.464Z,81.40
2017-11-23T07:15:13.383Z,81.30
2017-11-23T07:17:45.819Z,81.30
2017-11-23T07:20:12.449Z,81.20
2017-11-23T07:22:39.046Z,81.00
2017-11-23T07:25:05.744Z,80.90
2017-11-23T07:27:32.280Z,81.00
2017-11-23T07:29:59.191Z,80.90
2017-11-23T07:32:25.811Z,80.90
2017-11-23T07:34:52.729Z,80.50
2017-11-23T07:37:19.260Z,80.50
2017-11-23T07:39:45.963Z,79.90
2017-11-23T07:42:12.508Z,80.20
2017-11-23T07:44:39.058Z,79.90
2017-11-23T07:47:05.664Z,79.60
2017-11-23T07:49:32.605Z,79.60
2017-11-23T07:51:59.162Z,79.60
2017-11-23T07:54:25.791Z,78.80
2017-11-23T07:56:52.343Z,77.50
2017-11-23T07:59:18.896Z,76.70
2017-11-23T08:01:45.891Z,76.90
2017-11-23T08:04:12.440Z,76.90
2017-11-23T08:06:39.000Z,75.90
2017-11-23T08:09:05.612Z,75.90
2017-11-23T08:11:32.153Z,76.10
2017-11-23T08:13:58.711Z,75.70
2017-11-23T08:16:25.415Z,75.50
2017-11-23T08:18:52.354Z,74.20
2017-11-23T08:21:18.958Z,74.20
2017-11-23T08:23:45.564Z,74.10
2017-11-23T08:26:12.191Z,73.90
2017-11-23T08:28:38.738Z,73.50
2017-11-23T08:31:05.699Z,73.30
2017-11-23T08:33:32.627Z,73.10
2017-11-23T08:35:59.172Z,73.10
2017-11-23T08:38:25.787Z,72.70
2017-11-23T08:40:52.724Z,72.20
2017-11-23T08:43:19.272Z,72.20
2017-11-23T08:45:45.890Z,72.20
2017-11-23T08:48:12.451Z,71.80
2017-11-23T08:50:38.990Z,71.40
2017-11-23T08:53:05.987Z,70.20
2017-11-23T08:55:32.540Z,70.20
2017-11-23T08:57:59.100Z,69.50
2017-11-23T09:00:26.651Z,69.90
2017-11-23T09:02:53.191Z,68.70
2017-11-23T09:05:19.753Z,67.80
2017-11-23T09:07:46.410Z,68.10
2017-11-23T09:10:12.968Z,67.50
2017-11-23T09:12:39.608Z,68.20
2017-11-23T09:15:07.159Z,68.00
2017-11-23T09:17:33.731Z,68.20
2017-11-23T09:20:00.283Z,67.80
2017-11-23T09:22:26.927Z,68.00
2017-11-23T09:24:53.875Z,68.50
2017-11-23T09:27:20.447Z,68.50
2017-11-23T09:29:47.459Z,67.60
2017-11-23T09:32:14.011Z,67.60
2017-11-23T09:34:40.586Z,67.10
2017-11-23T09:37:07.228Z,67.10
2017-11-23T09:39:33.803Z,67.20
2017-11-23T09:42:00.402Z,67.70
2017-11-23T09:44:27.050Z,67.60
2017-11-23T09:46:53.647Z,66.00
2017-11-23T09:49:20.220Z,65.10
2017-11-23T09:51:46.899Z,63.70
2017-11-23T09:54:13.471Z,63.90
2017-11-23T09:56:40.034Z,63.50
2017-11-23T09:59:06.652Z,63.30
2017-11-23T10:01:33.643Z,63.70
2017-11-23T10:04:00.194Z,63.70
2017-11-23T10:06:26.799Z,64.50
2017-11-23T10:08:53.350Z,63.20
2017-11-23T10:11:19.897Z,62.50
2017-11-23T10:13:46.507Z,63.60
2017-11-23T10:16:13.058Z,64.20
2017-11-23T10:18:39.607Z,63.90
2017-11-23T10:21:06.219Z,63.70
2017-11-23T10:23:32.776Z,62.70
2017-11-23T10:25:59.343Z,63.70
2017-11-23T10:28:26.000Z,63.70
2017-11-23T10:30:52.559Z,63.30
2017-11-23T10:33:19.133Z,61.60
2017-11-23T10:35:45.751Z,61.50
2017-11-23T10:38:12.709Z,61.40
2017-11-23T10:40:39.400Z,61.40
2017-11-23T10:43:06.107Z,61.10
2017-11-23T10:45:32.711Z,60.80
2017-11-23T10:47:59.672Z,59.70
2017-11-23T10:50:26.351Z,59.70
2017-11-23T10:52:53.276Z,58.40
2017-11-23T10:55:19.899Z,58.40
2017-11-23T10:57:46.532Z,58.80
2017-11-23T11:00:16.344Z,58.40
2017-11-23T11:02:42.932Z,58.40
2017-11-23T11:05:09.944Z,59.10
2017-11-23T11:07:36.503Z,59.10
2017-11-23T11:10:03.091Z,59.30
2017-11-23T11:12:29.691Z,58.90
2017-11-23T11:14:56.278Z,58.20
2017-11-23T11:17:22.834Z,59.70
2017-11-23T11:19:49.435Z,61.00
2017-11-23T11:22:16.007Z,61.90
2017-11-23T11:24:42.567Z,60.00
2017-11-23T11:27:09.247Z,59.30
2017-11-23T11:29:36.161Z,58.90
2017-11-23T11:32:02.772Z,59.00
2017-11-23T11:34:29.763Z,57.10
2017-11-23T11:36:56.351Z,57.10
2017-11-23T11:39:22.899Z,57.30
2017-11-23T11:41:49.527Z,56.20
2017-11-23T11:44:16.475Z,57.30
2017-11-23T11:46:43.035Z,57.30
2017-11-23T11:49:09.740Z,56.40
2017-11-23T11:51:36.295Z,57.70
2017-11-23T11:54:02.883Z,58.20
2017-11-23T11:56:29.502Z,58.70
2017-11-23T11:58:56.413Z,60.00
2017-11-23T12:01:22.980Z,60.00
2017-11-23T12:03:49.674Z,59.40
2017-11-23T12:06:16.664Z,57.90
2017-11-23T12:08:43.589Z,58.20
2017-11-23T12:11:10.199Z,58.20
2017-11-23T12:13:36.872Z,58.00
2017-11-23T12:19:08.757Z,55.90
2017-11-23T12:21:53.150Z,56.00
2017-11-23T12:24:27.699Z,55.40
2017-11-23T12:26:54.358Z,55.30
2017-11-23T12:29:33.525Z,59.50
2017-11-23T12:32:00.555Z,60.70
2017-11-23T12:34:34.113Z,60.70
2017-11-23T12:37:01.117Z,61.30
2017-11-23T12:39:27.677Z,61.40
2017-11-23T12:41:54.355Z,61.10
2017-11-23T12:44:20.965Z,61.00
2017-11-23T12:46:47.896Z,60.80
2017-11-23T12:49:14.464Z,60.80
2017-11-23T12:51:41.067Z,60.50
2017-11-23T12:54:07.988Z,60.30
2017-11-23T12:56:34.527Z,60.30
2017-11-23T12:59:01.135Z,60.10
2017-11-23T13:01:27.689Z,60.10
2017-11-23T13:03:54.292Z,60.40
2017-11-23T13:06:20.920Z,60.60
2017-11-23T13:08:47.459Z,60.90
2017-11-23T13:11:14.006Z,60.60
2017-11-23T13:13:40.615Z,60.90
2017-11-23T13:16:07.533Z,62.00
2017-11-23T13:18:34.075Z,62.00
2017-11-23T13:21:00.687Z,62.70
2017-11-23T13:23:27.240Z,63.00
2017-11-23T13:25:53.851Z,63.00
2017-11-23T13:28:20.471Z,63.30
2017-11-23T13:30:47.093Z,63.30
2017-11-23T13:33:13.735Z,62.20
2017-11-23T13:35:40.399Z,61.80
2017-11-23T13:38:06.966Z,62.20
2017-11-23T13:40:33.563Z,62.70
2017-11-23T13:43:00.206Z,62.70
2017-11-23T13:45:26.772Z,63.20
2017-11-23T13:47:53.324Z,63.40
2017-11-23T13:50:20.100Z,63.80
2017-11-23T13:52:47.115Z,64.90
2017-11-23T13:55:13.742Z,65.30
2017-11-23T13:57:40.444Z,65.60
2017-11-23T14:00:07.108Z,66.00
2017-11-23T14:02:33.698Z,67.20
2017-11-23T14:05:00.693Z,66.70
2017-11-23T14:07:27.485Z,67.00
2017-11-23T14:09:54.191Z,68.10
2017-11-23T14:12:21.236Z,68.20
2017-11-23T14:14:47.830Z,68.20
2017-11-23T14:17:14.407Z,68.70
2017-11-23T14:19:41.074Z,68.60
2017-11-23T14:22:07.675Z,68.20
2017-11-23T14:24:34.239Z,69.40
2017-11-23T14:27:00.868Z,69.80
2017-11-23T14:29:27.479Z,69.90
2017-11-23T14:31:54.040Z,70.10
2017-11-23T14:34:20.643Z,69.20
2017-11-23T14:36:47.208Z,69.80
2017-11-23T14:39:14.163Z,69.20
2017-11-23T14:41:40.795Z,69.20
2017-11-23T14:44:07.344Z,70.00
2017-11-23T14:46:33.906Z,68.50
2017-11-23T14:49:00.528Z,67.80
2017-11-23T14:51:27.127Z,68.50
2017-11-23T14:53:53.721Z,67.40
2017-11-23T14:56:20.481Z,66.70
2017-11-23T14:58:47.035Z,66.40
2017-11-23T15:01:13.712Z,67.50
2017-11-23T15:03:40.323Z,68.00
2017-11-23T15:06:07.280Z,65.80
2017-11-23T15:08:34.203Z,64.00
2017-11-23T15:11:00.831Z,64.00
2017-11-23T15:13:27.775Z,65.70
2017-11-23T15:15:54.768Z,66.10
2017-11-23T15:18:21.453Z,66.10
2017-11-23T15:20:48.025Z,63.20
2017-11-23T15:23:14.571Z,63.70
2017-11-23T15:25:41.182Z,62.70
2017-11-23T15:28:07.747Z,62.00
2017-11-23T15:30:34.323Z,62.70
2017-11-23T15:33:00.964Z,63.10
2017-11-23T15:35:27.560Z,64.10
2017-11-23T15:37:54.480Z,66.00
2017-11-23T15:40:21.092Z,66.00
2017-11-23T15:42:48.020Z,67.20
2017-11-23T15:45:14.575Z,67.20
2017-11-23T15:47:41.183Z,69.50
2017-11-23T15:50:08.111Z,72.40
2017-11-23T15:52:34.679Z,72.40
2017-11-23T15:55:01.300Z,73.20
2017-11-23T15:57:27.868Z,73.50
2017-11-23T15:59:54.439Z,74.40
2017-11-23T16:02:21.076Z,75.30
2017-11-23T16:04:47.728Z,75.40
2017-11-23T16:07:14.768Z,75.90
2017-11-23T16:09:41.459Z,76.50
2017-11-23T16:12:08.011Z,76.70
2017-11-23T16:14:35.000Z,77.20
2017-11-23T16:17:01.653Z,77.20
2017-11-23T16:19:28.255Z,77.20
2017-11-23T16:21:54.809Z,77.10
2017-11-23T16:24:21.448Z,77.40
2017-11-23T16:26:48.002Z,77.50
2017-11-23T16:29:14.629Z,77.10
2017-11-23T16:31:41.648Z,76.30
2017-11-23T16:34:08.255Z,76.30
2017-11-23T16:36:34.859Z,76.10
2017-11-23T16:39:04.411Z,76.20
2017-11-23T16:41:31.979Z,75.60
2017-11-23T16:44:14.279Z,75.40
2017-11-23T16:46:52.751Z,75.20
2017-11-23T16:49:25.227Z,74.40
2017-11-23T16:51:57.948Z,74.60
2017-11-23T16:54:30.704Z,73.80
2017-11-23T16:57:12.982Z,73.20
2017-11-23T16:59:57.504Z,73.10
2017-11-23T17:02:30.112Z,72.50
2017-11-23T17:05:02.848Z,72.10
2017-11-23T17:07:35.764Z,71.30
2017-11-23T17:10:03.739Z,70.40
2017-11-23T17:12:36.624Z,70.10
2017-11-23T17:15:06.124Z,70.10
2017-11-23T17:17:51.446Z,70.50
2017-11-23T17:20:18.067Z,70.40
2017-11-23T17:22:44.636Z,70.70
2017-11-23T17:25:11.191Z,70.90
2017-11-23T17:27:37.820Z,71.00
2017-11-23T17:30:04.761Z,71.20
2017-11-23T17:32:31.311Z,71.20
2017-11-23T17:34:57.935Z,71.00
2017-11-23T17:37:24.944Z,71.30
2017-11-23T17:39:51.523Z,71.40
2017-11-23T17:42:18.147Z,71.50
2017-11-23T17:44:44.712Z,71.80
2017-11-23T17:47:11.267Z,72.60
2017-11-23T17:49:38.004Z,73.00
2017-11-23T17:52:04.925Z,73.30
2017-11-23T17:54:31.807Z,73.30
2017-11-23T17:56:58.744Z,74.00
2017-11-23T17:59:25.315Z,74.60
2017-11-23T18:01:51.872Z,73.80
2017-11-23T18:04:18.495Z,72.90
2017-11-23T18:06:45.119Z,73.50
2017-11-23T18:09:11.789Z,73.80
2017-11-23T18:11:38.763Z,74.00
2017-11-23T18:14:05.708Z,73.70
2017-11-23T18:16:32.339Z,73.70
2017-11-23T18:18:59.028Z,73.80
2017-11-23T18:21:25.584Z,73.80
2017-11-23T18:23:52.125Z,73.80
2017-11-23T18:26:18.812Z,73.60
2017-11-23T18:28:45.379Z,73.40
2017-11-23T18:31:11.927Z,73.20
2017-11-23T18:33:38.608Z,73.00
2017-11-23T18:36:05.175Z,73.00
2017-11-23T18:38:32.128Z,72.90
2017-11-23T18:40:58.762Z,72.90
2017-11-23T18:43:25.361Z,73.10
2017-11-23T18:45:52.290Z,72.90
2017-11-23T18:48:18.907Z,73.00
2017-11-23T18:50:45.834Z,73.10
2017-11-23T18:53:12.375Z,73.10
2017-11-23T18:55:39.154Z,73.00
2017-11-23T18:58:05.726Z,72.80
2017-11-23T19:00:32.279Z,72.80
2017-11-23T19:02:58.992Z,72.70
2017-11-23T19:05:25.571Z,72.80
2017-11-23T19:07:52.165Z,72.50
2017-11-23T19:10:19.268Z,72.10
2017-11-23T19:12:45.838Z,71.50
2017-11-23T19:15:12.409Z,71.30
2017-11-23T19:17:39.048Z,71.40
2017-11-23T19:20:06.013Z,71.20
2017-11-23T19:22:32.939Z,71.10
2017-11-23T19:24:59.559Z,71.10
2017-11-23T19:27:26.148Z,71.30
2017-11-23T19:29:52.700Z,71.50
2017-11-23T19:32:19.662Z,71.60
2017-11-23T19:34:46.228Z,71.60
2017-11-23T19:37:12.811Z,71.80
2017-11-23T19:39:39.458Z,71.70
2017-11-23T19:42:06.045Z,71.70
2017-11-23T19:44:32.968Z,71.00
2017-11-23T19:46:59.713Z,71.00
2017-11-23T19:49:26.267Z,70.60
2017-11-23T19:51:52.845Z,70.30
2017-11-23T19:54:19.532Z,70.20
2017-11-23T19:56:46.131Z,70.00
2017-11-23T19:59:12.700Z,70.20
2017-11-23T20:01:39.298Z,70.20
2017-11-23T20:04:05.856Z,70.30
2017-11-23T20:06:32.822Z,70.80
2017-11-23T20:09:00.260Z,70.80
2017-11-23T20:11:28.128Z,71.80
2017-11-23T20:13:54.730Z,71.80
2017-11-23T20:16:21.448Z,72.30
2017-11-23T20:18:48.376Z,72.80
2017-11-23T20:21:14.951Z,72.80
2017-11-23T20:23:41.584Z,73.40
2017-11-23T20:26:08.161Z,74.00
2017-11-23T20:28:34.736Z,74.30
2017-11-23T20:31:01.347Z,74.20
2017-11-23T20:33:27.910Z,74.20
2017-11-23T20:35:54.536Z,74.10
2017-11-23T20:38:21.628Z,74.00
2017-11-23T20:40:48.835Z,74.00
2017-11-23T20:43:16.559Z,74.00
2017-11-23T20:45:43.477Z,73.80
2017-11-23T20:48:10.895Z,73.60
2017-11-23T20:50:37.760Z,73.40
2017-11-23T20:53:04.644Z,73.60
2017-11-23T20:55:31.545Z,73.50
2017-11-23T20:57:58.746Z,72.70
2017-11-23T21:00:26.026Z,72.70
2017-11-23T21:02:52.890Z,72.20
2017-11-23T21:05:19.691Z,72.00
2017-11-23T21:07:46.712Z,71.60
2017-11-23T21:10:14.032Z,71.00
2017-11-23T21:12:40.809Z,70.30
2017-11-23T21:15:07.428Z,70.00
2017-11-23T21:17:34.147Z,69.60
2017-11-23T21:20:00.811Z,69.40
2017-11-23T21:22:27.903Z,68.20
2017-11-23T21:24:54.848Z,68.10
2017-11-23T21:27:21.411Z,68.10
2017-11-23T21:29:48.099Z,68.00
2017-11-23T21:32:15.048Z,68.40
2017-11-23T21:34:41.979Z,69.00
2017-11-23T21:37:08.590Z,69.00
2017-11-23T21:39:35.146Z,69.40
2017-11-23T21:42:01.700Z,70.00
2017-11-23T21:44:28.430Z,71.00
2017-11-23T21:46:54.996Z,71.00
2017-11-23T21:49:21.572Z,71.80
2017-11-23T21:51:48.187Z,72.00
2017-11-23T21:54:14.752Z,72.00
2017-11-23T21:56:41.329Z,72.40
2017-11-23T21:59:08.155Z,72.50
2017-11-23T22:01:35.104Z,72.40
2017-11-23T22:04:01.689Z,72.40
2017-11-23T22:06:28.733Z,72.80
2017-11-23T22:08:55.325Z,72.80
2017-11-23T22:11:22.287Z,72.00
2017-11-23T22:13:49.260Z,71.60
2017-11-23T22:16:16.172Z,71.70
2017-11-23T22:18:42.718Z,71.60
2017-11-23T22:21:09.335Z,71.40
2017-11-23T22:23:35.891Z,71.40
2017-11-23T22:26:02.440Z,71.20
2017-11-23T22:28:29.062Z,70.50
2017-11-23T22:30:55.603Z,69.90
2017-11-23T22:33:22.532Z,69.90
2017-11-23T22:35:49.225Z,69.90
2017-11-23T22:38:16.148Z,69.50
2017-11-23T22:40:42.707Z,69.50
2017-11-23T22:43:09.403Z,69.80
2017-11-23T22:45:35.954Z,70.00
2017-11-23T22:48:02.503Z,69.90
2017-11-23T22:50:29.112Z,70.10
2017-11-23T22:53:02.615Z,70.10
2017-11-23T22:55:29.568Z,69.40
2017-11-23T22:57:56.158Z,69.40
2017-11-23T23:00:22.699Z,69.90
2017-11-23T23:02:49.671Z,70.20
2017-11-23T23:05:16.591Z,70.60
2017-11-23T23:07:43.140Z,70.60
2017-11-23T23:10:09.836Z,70.40
2017-11-23T23:12:36.467Z,70.90
2017-11-23T23:15:03.051Z,70.70
2017-11-23T23:17:29.669Z,70.90
2017-11-23T23:19:56.223Z,71.20
2017-11-23T23:22:22.754Z,71.20
2017-11-23T23:24:49.745Z,69.40
2017-11-23T23:27:16.286Z,69.40
2017-11-23T23:29:43.190Z,68.90
2017-11-23T23:32:09.855Z,68.90
2017-11-23T23:45:58.983Z,69.00
2017-11-23T23:48:25.914Z,68.70
2017-11-23T23:50:52.461Z,68.80
2017-11-23T23:53:19.059Z,68.60
2017-11-23T23:55:45.719Z,68.90
2017-11-23T23:58:12.279Z,69.30
